Pagrindinis puslapis
METAR-TAF:

METAR-TAF

Oro uostai :

Buckland, Aliaska, Jungtinės Amerikos Valstijos

platuma: 65-58-56N, ilguma: 161-09-07W, Aukštis: 7 m

Dabartinis oras

Ataskaita buvo paskelbta 19 minutes, ne 20:56 UTC
Vėjas 5 kt iš Pietvakarių
Temperatūra 5°C
Drėgmė 65%
Slėgis 1001 hPa
Matomumas: 16.1 km
Apsiniaukę ne aukštis 2400 ft

METAR: PABL 212056Z AUTO 22005KT 10SM OVC024 05/M01 A2957 RMK AO2 SLP014 T00501006 51006

Laikas: 13:15 (21:15 UTC)


TAF: trūkstamas

Orai ataskaitas ir orų prognozės (METAR, TAF).

turimą stotys yra geltonos ir raudonos taškus žemėlapyje.

Perkelti pele per norėdami pamatyti stoties vardą.

Tada spustelėkite, norėdami matyti oro stebėjimo ir prognozės.

Norėdami pakeisti žemėlapį: spustelėkite ant žalios mygtukų su juodo kryžiaus žemyn,; žalią mygtuką su brūkšneliu, jei norite nutolinti; arba žalių rodyklių gretimoms žemėlapius.


METAR-TAF: